Time;durP1;ratioP1;P1;durP2;ratioP2;P2;SDS_P1;SDS_P2;PMS_P1;PMS_P2;Temp;Humidity;BMP_temperature;BMP_pressure;BME280_temperature;BME280_humidity;BME280_pressure;Samples;Min_cycle;Max_cycle;Signal;HPM_P1;HPM_P2
2022/01/18 00:00:40;;;;;;;26.90;3.92;;;;;;;3.12;94.74;102834.53;5049973;28;20486;-79
2022/01/18 00:03:06;;;;;;;24.73;3.10;;;;;;;3.08;94.30;102811.84;5061747;28;20409;-77
2022/01/18 00:05:31;;;;;;;30.60;4.95;;;;;;;3.15;93.89;102806.22;5052988;28;20028;-79
2022/01/18 00:07:58;;;;;;;22.40;2.78;;;;;;;3.15;93.28;102785.09;5050044;28;20028;-76
2022/01/18 00:10:26;;;;;;;;;;;;;;;3.31;92.99;102792.41;5053689;28;20032;-77
2022/01/18 00:18:11;;;;;;;22.55;3.88;;;;;;;3.26;91.86;102760.91;5066563;28;20029;-79
2022/01/18 00:23:11;;;;;;;31.38;4.18;;;;;;;3.14;91.87;102749.09;5082043;28;20047;-78
2022/01/18 00:25:40;;;;;;;33.00;3.72;;;;;;;3.16;92.15;102754.28;5043963;28;20474;-78
2022/01/18 00:28:06;;;;;;;30.35;4.90;;;;;;;3.35;92.27;102786.91;5049823;28;20040;-77
2022/01/18 00:36:01;;;;;;;17.45;2.97;;;;;;;3.56;91.27;102781.63;5056909;28;20040;-79
2022/01/18 00:40:55;;;;;;;15.35;2.80;;;;;;;3.58;90.63;102764.78;5060882;28;20073;-78
2022/01/18 00:43:20;;;;;;;19.45;3.22;;;;;;;3.64;90.46;102760.16;5046297;28;20088;-77
2022/01/18 00:45:46;;;;;;;25.80;6.60;;;;;;;3.50;89.98;102735.22;5050551;28;20509;-76
2022/01/18 00:48:11;;;;;;;12.37;3.30;;;;;;;3.57;89.96;102741.94;5052268;28;20021;-79
2022/01/18 00:50:37;;;;;;;25.27;4.20;;;;;;;3.52;89.97;102741.28;5044588;28;20056;-79
2022/01/18 00:53:08;;;;;;;16.58;4.13;;;;;;;3.54;89.97;102743.88;5060627;28;20494;-78
2022/01/18 00:55:36;;;;;;;27.60;4.22;;;;;;;3.47;89.98;102745.91;5069820;28;20047;-79
2022/01/18 00:58:02;;;;;;;20.80;3.58;;;;;;;3.52;90.27;102753.63;5027098;28;20066;-79
2022/01/18 01:00:27;;;;;;;19.33;3.73;;;;;;;3.58;90.18;102748.06;5046021;28;20048;-79
2022/01/18 01:02:52;;;;;;;17.67;2.60;;;;;;;3.57;89.86;102757.78;5052612;28;20290;-76
2022/01/18 01:05:18;;;;;;;29.00;3.23;;;;;;;3.63;89.65;102761.06;5052273;28;20086;-77
2022/01/18 01:07:43;;;;;;;21.43;6.00;;;;;;;3.62;89.56;102754.94;5061954;28;20028;-79
2022/01/18 01:10:09;;;;;;;19.90;2.77;;;;;;;3.53;89.88;102744.78;5052826;28;20085;-78
2022/01/18 01:12:34;;;;;;;13.50;3.10;;;;;;;3.47;90.31;102768.84;5061126;28;20539;-79
2022/01/18 01:15:08;;;;;;;17.67;3.17;;;;;;;3.63;90.31;102798.94;5051326;28;20028;-79
2022/01/18 01:36:35;;;;;;;29.07;3.63;;;;;;;3.63;92.89;102866.72;5066438;28;20153;-78
2022/01/18 01:44:24;;;;;;;17.50;2.78;;;;;;;3.64;93.15;102879.88;5070160;28;20027;-79
2022/01/18 01:46:51;;;;;;;36.15;6.32;;;;;;;3.66;93.37;102880.69;5051942;28;20033;-79
2022/01/18 01:49:16;;;;;;;20.23;2.53;;;;;;;3.60;93.80;102875.66;5052407;28;20020;-79
2022/01/18 01:51:47;;;;;;;22.20;3.90;;;;;;;3.56;94.02;102890.78;5052353;28;20191;-77
2022/01/18 01:54:13;;;;;;;29.45;4.18;;;;;;;3.58;94.19;102909.19;5037350;28;20383;-76
2022/01/18 01:56:39;;;;;;;17.83;3.05;;;;;;;3.71;94.42;102917.47;5066379;28;20032;-77
2022/01/18 01:59:05;;;;;;;18.63;2.95;;;;;;;3.63;94.51;102901.97;5047029;28;20036;-79
2022/01/18 02:01:38;;;;;;;26.73;4.88;;;;;;;3.58;94.85;102910.06;5047283;28;20104;-79
2022/01/18 02:04:04;;;;;;;22.80;3.63;;;;;;;3.57;95.02;102918.06;5051815;28;20052;-77
2022/01/18 02:06:29;;;;;;;29.37;3.67;;;;;;;3.52;95.40;102923.53;5050983;28;20016;-79
2022/01/18 02:08:55;;;;;;;21.83;3.43;;;;;;;3.48;95.56;102929.00;5050597;28;20123;-78
2022/01/18 02:11:20;;;;;;;19.43;2.67;;;;;;;3.50;95.85;102935.06;5054812;28;20020;-77
2022/01/18 02:13:49;;;;;;;20.45;2.63;;;;;;;3.55;95.94;102941.03;5046457;28;20187;-79
2022/01/18 02:21:46;;;;;;;21.15;3.70;;;;;;;3.65;95.80;102939.72;5049561;28;20067;-77
2022/01/18 02:21:46;;;;;;;12.00;3.50;;;;;;;3.71;95.99;102943.91;5072872;28;20067;-79
2022/01/18 02:24:12;;;;;;;14.55;2.58;;;;;;;3.68;95.76;102930.81;5054716;28;20017;-79
2022/01/18 02:26:38;;;;;;;15.18;3.03;;;;;;;3.69;96.05;102935.16;5066717;28;20144;-76
2022/01/18 02:29:07;;;;;;;18.90;4.95;;;;;;;3.80;95.87;102954.09;5054404;28;20121;-78
2022/01/18 02:31:33;;;;;;;13.10;2.45;;;;;;;3.70;95.80;102932.47;5054995;28;20871;-78
2022/01/18 02:34:04;;;;;;;18.13;2.88;;;;;;;3.73;95.89;102940.25;5053853;28;20406;-76
2022/01/18 02:36:30;;;;;;;17.30;2.42;;;;;;;3.75;95.92;102927.84;5053925;28;20043;-78
2022/01/18 02:38:56;;;;;;;;;;;;;;;3.77;96.29;102944.50;5063022;28;20039;-78
2022/01/18 02:41:29;;;;;;;17.85;2.17;;;;;;;3.80;96.34;102939.06;5030902;28;19913;-78
2022/01/18 02:44:12;;;;;;;27.83;3.67;;;;;;;3.75;96.22;102938.41;5036373;28;20036;-79
2022/01/18 02:46:38;;;;;;;15.77;2.47;;;;;;;3.90;96.29;102947.47;5045569;28;20497;-77
2022/01/18 02:49:05;;;;;;;23.77;2.33;;;;;;;3.85;96.17;102943.31;5054548;28;20032;-78
2022/01/18 02:51:31;;;;;;;13.68;2.92;;;;;;;3.83;96.28;102932.81;5046503;28;20087;-79
2022/01/18 02:54:03;;;;;;;11.40;2.75;;;;;;;3.80;96.21;102933.78;5071008;28;20035;-79
2022/01/18 02:56:32;;;;;;;19.55;2.90;;;;;;;3.87;96.46;102944.97;5030135;28;20110;-79
2022/01/18 02:59:05;;;;;;;18.95;3.00;;;;;;;3.88;96.43;102938.75;5050615;28;20032;-77
2022/01/18 03:04:15;;;;;;;13.82;3.15;;;;;;;3.95;96.36;102955.19;5061454;28;20453;-78
2022/01/18 03:06:40;;;;;;;12.55;1.80;;;;;;;3.96;96.38;102949.00;5053727;28;20103;-79
2022/01/18 03:09:05;;;;;;;8.57;2.10;;;;;;;3.95;96.10;102955.19;5053397;28;20105;-79
2022/01/18 03:11:31;;;;;;;13.27;2.08;;;;;;;3.93;96.41;102949.13;5045424;28;20028;-80
2022/01/18 03:13:56;;;;;;;10.33;2.13;;;;;;;3.93;96.60;102957.94;5045224;28;20060;-79
2022/01/18 03:16:22;;;;;;;8.40;1.93;;;;;;;3.78;96.89;102946.22;5036911;28;20653;-79
2022/01/18 03:18:47;;;;;;;18.23;3.63;;;;;;;3.80;97.21;102962.00;5053516;28;20036;-79
2022/01/18 03:21:13;;;;;;;8.97;1.77;;;;;;;3.96;97.54;102978.09;5052925;28;20017;-77
2022/01/18 03:23:38;;;;;;;14.88;3.70;;;;;;;3.93;97.47;102968.50;5045829;28;20040;-78
2022/01/18 03:26:14;;;;;;;6.07;2.03;;;;;;;4.01;97.76;102973.47;5053254;28;20385;-79
2022/01/18 03:28:39;;;;;;;12.88;1.65;;;;;;;3.99;97.37;102962.94;5061467;28;20486;-79
2022/01/18 03:31:05;;;;;;;6.55;2.08;;;;;;;3.94;97.47;102967.56;5049043;28;20017;-79
2022/01/18 03:33:30;;;;;;;10.70;1.85;;;;;;;3.97;97.59;102970.06;5033547;28;20036;-78
2022/01/18 03:35:57;;;;;;;18.93;1.93;;;;;;;4.00;97.49;102977.00;5053700;28;20052;-76
2022/01/18 03:38:29;;;;;;;32.40;3.35;;;;;;;3.93;97.67;102975.56;5071383;28;20033;-80
2022/01/18 03:41:00;;;;;;;17.88;2.15;;;;;;;3.80;98.04;102973.44;5036679;28;20393;-78
2022/01/18 03:43:26;;;;;;;13.35;3.55;;;;;;;3.81;98.23;102975.13;5053011;28;20124;-77
2022/01/18 03:45:55;;;;;;;13.48;2.70;;;;;;;3.89;98.70;102984.56;5070818;28;20058;-77
2022/01/18 03:48:36;;;;;;;10.95;2.28;;;;;;;3.94;98.56;102993.16;5046993;28;20044;-77
2022/01/18 03:51:06;;;;;;;13.73;1.88;;;;;;;3.90;98.88;102988.91;5036854;28;20024;-77
2022/01/18 03:53:32;;;;;;;12.18;3.50;;;;;;;3.89;99.25;103000.41;5045359;28;20029;-78
2022/01/18 03:55:57;;;;;;;11.43;2.10;;;;;;;3.88;99.60;103014.53;5051864;28;20894;-80
2022/01/18 03:58:23;;;;;;;19.17;2.53;;;;;;;3.82;99.92;103010.38;5052974;28;20414;-78
2022/01/18 04:00:50;;;;;;;16.90;2.40;;;;;;;3.80;100.00;103010.44;5044278;28;20043;-78
2022/01/18 04:03:15;;;;;;;12.27;3.15;;;;;;;3.75;100.00;103008.91;5052930;28;20051;-78
2022/01/18 04:05:40;;;;;;;11.57;1.80;;;;;;;3.69;100.00;103003.88;5043872;28;20056;-78
2022/01/18 04:08:06;;;;;;;18.47;3.50;;;;;;;3.73;100.00;103021.31;5052923;28;20273;-78
2022/01/18 04:10:32;;;;;;;15.73;2.40;;;;;;;3.73;100.00;103023.97;5060789;28;20378;-76
2022/01/18 04:12:59;;;;;;;25.05;3.35;;;;;;;3.75;100.00;103025.63;5060806;28;20818;-78
2022/01/18 04:15:24;;;;;;;16.58;3.45;;;;;;;3.73;100.00;103024.81;5043507;28;20063;-77
2022/01/18 04:26:03;;;;;;;12.70;2.35;;;;;;;3.58;100.00;103022.78;5060266;28;20498;-77
2022/01/18 04:30:58;;;;;;;12.73;2.70;;;;;;;3.47;100.00;103033.78;5060440;28;20028;-77
2022/01/18 04:33:24;;;;;;;12.67;2.23;;;;;;;3.51;100.00;103038.03;5044799;28;20033;-78
2022/01/18 04:35:49;;;;;;;15.10;3.37;;;;;;;3.52;100.00;103038.88;5050365;28;20112;-77
2022/01/18 04:38:14;;;;;;;15.90;3.07;;;;;;;3.48;100.00;103030.22;5044026;28;20640;-77
2022/01/18 04:40:43;;;;;;;15.63;2.10;;;;;;;3.58;100.00;103049.19;5069686;28;20032;-76
2022/01/18 04:48:32;;;;;;;16.42;3.08;;;;;;;3.81;100.00;103041.19;5060396;28;20028;-77
2022/01/18 04:51:01;;;;;;;12.60;1.83;;;;;;;3.88;100.00;103035.69;5049026;28;20111;-80
2022/01/18 04:53:30;;;;;;;12.25;2.78;;;;;;;3.86;100.00;103038.38;5051946;28;20044;-77
2022/01/18 04:55:57;;;;;;;9.20;1.73;;;;;;;3.85;100.00;103046.38;5058566;28;20048;-76
2022/01/18 04:58:24;;;;;;;8.88;2.28;;;;;;;3.91;100.00;103041.72;5035242;28;20035;-79
2022/01/18 05:00:53;;;;;;;8.57;2.13;;;;;;;3.84;100.00;103024.38;5050897;28;20028;-77
2022/01/18 05:03:19;;;;;;;16.38;4.28;;;;;;;3.94;100.00;103040.72;5052282;28;20032;-77
2022/01/18 05:05:44;;;;;;;13.45;1.92;;;;;;;4.00;100.00;103037.81;5051126;28;20478;-76
2022/01/18 05:08:13;;;;;;;9.77;1.37;;;;;;;4.08;100.00;103038.34;5035236;28;20115;-77
2022/01/18 05:10:40;;;;;;;12.75;1.98;;;;;;;3.99;100.00;103014.94;5043209;28;20041;-77
2022/01/18 05:13:17;;;;;;;12.48;1.50;;;;;;;3.91;100.00;103014.38;5043255;28;20016;-77
2022/01/18 05:15:50;;;;;;;10.45;2.22;;;;;;;3.97;100.00;103014.16;5042862;28;20040;-77
2022/01/18 05:21:20;;;;;;;11.32;2.10;;;;;;;4.03;100.00;103024.47;5051491;28;20111;-78
2022/01/18 05:23:45;;;;;;;10.70;1.90;;;;;;;4.06;100.00;103031.41;5043261;28;20108;-77
2022/01/18 05:26:11;;;;;;;12.60;2.50;;;;;;;4.01;100.00;103032.47;5051509;28;20107;-76
2022/01/18 05:28:45;;;;;;;11.57;2.27;;;;;;;4.04;100.00;103028.81;5059189;28;20032;-78
2022/01/18 05:31:11;;;;;;;13.35;2.20;;;;;;;4.12;100.00;103034.66;5035002;28;20116;-77
2022/01/18 05:33:38;;;;;;;6.40;1.13;;;;;;;4.12;100.00;103033.78;5043351;28;20103;-82
2022/01/18 05:36:04;;;;;;;13.38;2.28;;;;;;;4.17;100.00;103037.13;5043033;28;20706;-78
2022/01/18 05:38:32;;;;;;;6.78;1.83;;;;;;;4.26;100.00;103041.13;5051491;28;20028;-77
2022/01/18 05:40:57;;;;;;;7.32;1.40;;;;;;;4.26;100.00;103049.06;5049771;28;20029;-81
2022/01/18 05:43:23;;;;;;;9.07;1.80;;;;;;;4.17;100.00;103045.91;5044515;28;20108;-78
2022/01/18 05:45:48;;;;;;;10.70;1.70;;;;;;;4.23;100.00;103044.78;5053862;28;20279;-78
2022/01/18 05:48:14;;;;;;;13.97;2.83;;;;;;;4.20;100.00;103037.84;5038743;28;20024;-77
2022/01/18 05:50:39;;;;;;;8.90;1.73;;;;;;;4.09;100.00;103018.91;5046851;28;20063;-78
2022/01/18 05:53:04;;;;;;;10.27;1.60;;;;;;;4.19;100.00;103027.31;5046874;28;20031;-78
2022/01/18 05:55:31;;;;;;;18.20;3.35;;;;;;;4.20;100.00;103039.63;5054342;28;20090;-77
2022/01/18 05:57:56;;;;;;;;;;;;;;;4.24;100.00;103051.81;5047447;28;20032;-78
2022/01/18 06:00:23;;;;;;;10.45;2.05;;;;;;;4.14;100.00;103037.22;5054929;28;19916;-76
2022/01/18 06:08:07;;;;;;;11.52;2.15;;;;;;;4.21;100.00;103055.44;5047739;28;20036;-77
2022/01/18 06:10:32;;;;;;;12.63;1.80;;;;;;;4.08;100.00;103042.78;5051264;28;20103;-77
2022/01/18 06:13:01;;;;;;;9.20;1.40;;;;;;;4.19;100.00;103069.63;5029959;28;20128;-78
2022/01/18 06:15:27;;;;;;;5.82;1.48;;;;;;;4.19;100.00;103072.25;5054522;28;20026;-77
2022/01/18 06:17:52;;;;;;;11.73;3.65;;;;;;;4.16;100.00;103062.69;5062993;28;20032;-78
2022/01/18 06:20:17;;;;;;;7.03;1.40;;;;;;;4.23;100.00;103085.28;5048966;28;20036;-78
2022/01/18 06:22:43;;;;;;;10.63;1.80;;;;;;;4.25;100.00;103071.16;5035620;28;20033;-77
2022/01/18 06:25:09;;;;;;;8.33;1.70;;;;;;;4.19;100.00;103077.53;5046204;28;20024;-77
2022/01/18 06:27:34;;;;;;;10.75;1.30;;;;;;;4.21;100.00;103081.88;5054618;28;20081;-78
2022/01/18 06:30:00;;;;;;;16.90;2.42;;;;;;;4.13;100.00;103068.09;5053744;28;20044;-77
2022/01/18 06:32:25;;;;;;;7.47;1.93;;;;;;;4.15;100.00;103091.84;5050395;28;20506;-76
2022/01/18 06:34:51;;;;;;;12.00;1.97;;;;;;;4.10;100.00;103086.75;5049107;28;20115;-78
2022/01/18 06:37:17;;;;;;;10.15;2.38;;;;;;;4.12;100.00;103091.94;5036481;28;20036;-78
2022/01/18 06:39:42;;;;;;;18.50;1.88;;;;;;;4.08;100.00;103095.66;5053254;28;20043;-80
2022/01/18 06:42:14;;;;;;;10.93;3.20;;;;;;;4.05;100.00;103108.97;5035921;28;20126;-80
2022/01/18 06:44:40;;;;;;;10.40;1.90;;;;;;;4.04;100.00;103092.28;5030807;28;20047;-77
2022/01/18 06:47:05;;;;;;;9.48;3.70;;;;;;;4.09;100.00;103103.50;5071563;28;20021;-76
2022/01/18 06:49:31;;;;;;;10.80;1.92;;;;;;;4.00;100.00;103091.56;5062353;28;20043;-77
2022/01/18 06:51:56;;;;;;;16.73;2.20;;;;;;;4.18;100.00;103105.78;5053753;28;20601;-76
2022/01/18 06:54:21;;;;;;;14.63;3.50;;;;;;;4.13;100.00;103105.13;5036981;28;20028;-76
2022/01/18 06:56:49;;;;;;;10.60;3.87;;;;;;;4.09;100.00;103103.50;5044036;28;20029;-76
2022/01/18 06:59:16;;;;;;;8.10;2.13;;;;;;;4.13;100.00;103114.84;5061671;28;20032;-78
2022/01/18 07:01:42;;;;;;;14.55;2.38;;;;;;;4.03;100.00;103114.34;5045592;28;20111;-76
2022/01/18 07:04:07;;;;;;;11.43;2.58;;;;;;;4.04;100.00;103125.78;5053656;28;20116;-78
2022/01/18 07:06:34;;;;;;;14.25;2.65;;;;;;;4.10;100.00;103134.34;5053619;28;20071;-77
2022/01/18 07:08:59;;;;;;;;;;;;;;;4.05;100.00;103138.94;5045927;28;20366;-77
2022/01/18 07:11:25;;;;;;;22.52;3.45;;;;;;;4.04;100.00;103133.72;5036932;28;19915;-78
2022/01/18 07:13:51;;;;;;;14.13;2.78;;;;;;;4.01;100.00;103129.41;5053179;28;20632;-76
2022/01/18 07:16:16;;;;;;;16.73;3.40;;;;;;;4.00;100.00;103139.13;5048194;28;20140;-76
2022/01/18 07:18:41;;;;;;;16.40;3.50;;;;;;;3.92;100.00;103124.50;5034428;28;20542;-78
2022/01/18 07:21:09;;;;;;;11.07;3.10;;;;;;;4.00;100.00;103152.34;5045211;28;20020;-78
2022/01/18 07:23:35;;;;;;;7.13;2.58;;;;;;;3.97;100.00;103152.44;5045167;28;20398;-77
2022/01/18 07:26:00;;;;;;;17.73;2.10;;;;;;;3.90;100.00;103147.47;5041369;28;20013;-76
2022/01/18 07:28:26;;;;;;;10.93;2.37;;;;;;;3.94;100.00;103157.00;5048394;28;20043;-77
2022/01/18 07:30:51;;;;;;;11.83;2.10;;;;;;;3.86;100.00;103156.44;5044692;28;20085;-76
2022/01/18 07:33:17;;;;;;;13.40;2.57;;;;;;;3.96;100.00;103171.03;5053242;28;20887;-77
2022/01/18 07:35:43;;;;;;;;;;;;;;;3.96;100.00;103177.19;5053169;28;20029;-76
2022/01/18 07:38:12;;;;;;;;;;;;;;;3.98;100.00;103182.38;5052272;28;20362;-76
2022/01/18 07:40:39;;;;;;;14.15;1.73;;;;;;;3.88;100.00;103167.81;5052967;28;19908;-77
2022/01/18 07:43:05;;;;;;;18.33;2.95;;;;;;;3.92;100.00;103174.72;5069791;28;20129;-77
2022/01/18 07:45:31;;;;;;;8.87;3.03;;;;;;;3.88;100.00;103162.53;5052307;28;20111;-77
2022/01/18 07:47:57;;;;;;;13.02;2.35;;;;;;;3.97;100.00;103176.25;5070953;28;20482;-76
2022/01/18 07:50:23;;;;;;;15.75;2.60;;;;;;;4.01;100.00;103169.91;5052843;28;20021;-80
2022/01/18 07:52:48;;;;;;;15.30;2.72;;;;;;;4.02;100.00;103173.41;5061059;28;20712;-77
2022/01/18 07:55:14;;;;;;;24.43;3.83;;;;;;;4.06;100.00;103180.31;5044832;28;20025;-78
2022/01/18 07:57:42;;;;;;;11.50;4.03;;;;;;;4.10;100.00;103179.28;5043428;28;20463;-77
2022/01/18 08:00:13;;;;;;;17.95;3.45;;;;;;;4.20;100.00;103185.91;5043547;28;20166;-80
2022/01/18 08:02:43;;;;;;;19.37;2.63;;;;;;;4.15;100.00;103172.03;5043225;28;20643;-80
2022/01/18 08:05:09;;;;;;;13.55;2.50;;;;;;;4.19;100.00;103184.19;5042522;28;20159;-77
2022/01/18 08:07:36;;;;;;;20.67;3.75;;;;;;;4.19;100.00;103194.78;5051224;28;20398;-79
2022/01/18 08:10:03;;;;;;;20.13;2.78;;;;;;;4.13;100.00;103189.72;5034871;28;20020;-78
2022/01/18 08:12:29;;;;;;;14.88;2.40;;;;;;;4.14;100.00;103190.56;5045157;28;20089;-78
2022/01/18 08:15:00;;;;;;;18.87;4.40;;;;;;;4.19;100.00;103192.13;5043966;28;20398;-76
2022/01/18 08:17:25;;;;;;;12.00;2.95;;;;;;;4.19;100.00;103193.88;5045700;28;20162;-79
2022/01/18 08:19:50;;;;;;;23.23;3.07;;;;;;;4.25;100.00;103203.38;5052080;28;20050;-78
2022/01/18 08:22:16;;;;;;;27.43;3.80;;;;;;;4.31;100.00;103213.69;5052423;28;20037;-77
2022/01/18 08:24:41;;;;;;;22.60;3.90;;;;;;;4.32;100.00;103210.16;5059024;28;20644;-77
2022/01/18 08:27:07;;;;;;;20.13;3.08;;;;;;;4.28;100.00;103208.53;5051138;28;20697;-78
2022/01/18 08:29:34;;;;;;;19.35;3.90;;;;;;;4.35;100.00;103212.66;5059303;28;20033;-77
2022/01/18 08:31:59;;;;;;;15.35;4.03;;;;;;;4.40;100.00;103213.31;5042823;28;20099;-78
2022/01/18 08:34:25;;;;;;;25.17;3.07;;;;;;;4.52;100.00;103225.19;5042124;28;20747;-78
2022/01/18 08:36:51;;;;;;;17.53;4.57;;;;;;;4.59;100.00;103224.06;5041037;28;20036;-78
2022/01/18 08:39:16;;;;;;;21.73;4.55;;;;;;;4.54;100.00;103218.94;5050263;28;20521;-78
2022/01/18 08:41:42;;;;;;;15.10;3.70;;;;;;;4.59;100.00;103234.63;5050518;28;20039;-81
2022/01/18 08:44:07;;;;;;;21.97;3.83;;;;;;;4.57;100.00;103226.75;5033704;28;20035;-81
2022/01/18 08:46:33;;;;;;;26.27;5.30;;;;;;;4.64;100.00;103230.00;5068414;28;20032;-77
2022/01/18 08:48:58;;;;;;;22.20;4.17;;;;;;;4.72;100.00;103232.34;5042412;28;20111;-77
2022/01/18 08:51:24;;;;;;;20.42;4.43;;;;;;;4.68;100.00;103214.84;5034079;28;20032;-78
2022/01/18 08:53:50;;;;;;;12.02;4.40;;;;;;;4.73;100.00;103224.34;5042116;28;20037;-79
2022/01/18 08:56:20;;;;;;;25.77;5.68;;;;;;;4.71;100.00;103215.59;5045373;28;20498;-78
2022/01/18 08:58:46;;;;;;;18.58;5.55;;;;;;;4.74;100.00;103206.66;5048710;28;20140;-77
2022/01/18 09:01:12;;;;;;;18.02;4.43;;;;;;;4.67;100.00;103195.47;5034309;28;20033;-78
2022/01/18 09:03:38;;;;;;;26.30;5.00;;;;;;;4.72;100.00;103201.44;5050768;28;20032;-78
2022/01/18 09:06:05;;;;;;;23.55;5.38;;;;;;;4.71;100.00;103197.06;5069120;28;20474;-78
2022/01/18 09:08:31;;;;;;;17.25;4.45;;;;;;;4.75;100.00;103205.72;5050580;28;20071;-78
2022/01/18 09:10:57;;;;;;;29.58;5.00;;;;;;;4.83;100.00;103201.00;5050308;28;20020;-80
2022/01/18 09:13:22;;;;;;;22.73;4.37;;;;;;;4.85;100.00;103196.50;5044308;28;20051;-80
2022/01/18 09:15:49;;;;;;;27.48;4.43;;;;;;;4.89;100.00;103206.00;5049869;28;20028;-78
2022/01/18 09:18:15;;;;;;;37.97;8.05;;;;;;;4.85;100.00;103204.44;5051409;28;20094;-77
2022/01/18 09:20:40;;;;;;;18.60;3.75;;;;;;;4.83;100.00;103188.59;5046139;28;20129;-78
2022/01/18 09:23:06;;;;;;;32.97;4.67;;;;;;;4.90;100.00;103198.94;5051067;28;20047;-78
2022/01/18 09:25:33;;;;;;;;;;;;;;;4.99;100.00;103206.50;5034696;28;20029;-80
2022/01/18 09:27:58;;;;;;;;;;;;;;;5.02;100.00;103204.56;5087764;28;20012;-79
2022/01/18 09:30:28;;;;;;;24.55;4.45;;;;;;;5.02;100.00;103209.00;5038055;28;19939;-79
2022/01/18 09:32:55;;;;;;;29.13;5.78;;;;;;;5.03;100.00;103203.66;5052636;28;20385;-80
2022/01/18 09:35:22;;;;;;;25.67;5.07;;;;;;;5.06;100.00;103208.81;5054203;28;20036;-77
2022/01/18 09:37:48;;;;;;;19.55;4.90;;;;;;;5.10;100.00;103216.59;5038741;28;20147;-79
2022/01/18 09:40:19;;;;;;;21.30;4.60;;;;;;;5.07;100.00;103212.31;5071641;28;20024;-78
2022/01/18 09:42:54;;;;;;;17.27;4.70;;;;;;;5.15;100.00;103206.66;5048896;28;20579;-78
2022/01/18 09:45:22;;;;;;;33.30;4.47;;;;;;;5.25;100.00;103218.59;5071332;28;20170;-78
2022/01/18 09:47:49;;;;;;;22.98;6.57;;;;;;;5.27;100.00;103208.81;5071353;28;20314;-79
2022/01/18 09:50:18;;;;;;;27.65;4.18;;;;;;;5.30;100.00;103211.31;5047873;28;20021;-78
2022/01/18 09:52:43;;;;;;;29.58;6.32;;;;;;;5.29;100.00;103201.63;5060295;28;20032;-78
2022/01/18 09:55:10;;;;;;;15.18;4.40;;;;;;;5.29;100.00;103199.84;5053232;28;20073;-78
2022/01/18 09:57:37;;;;;;;25.73;6.10;;;;;;;5.29;100.00;103191.91;5071433;28;20028;-78
2022/01/18 10:00:06;;;;;;;21.17;4.30;;;;;;;5.36;100.00;103194.25;5050560;28;20108;-78
2022/01/18 10:02:37;;;;;;;18.85;5.28;;;;;;;5.36;100.00;103188.97;5046487;28;20074;-79
2022/01/18 10:05:30;;;;;;;25.52;3.35;;;;;;;5.42;100.00;103194.84;5048986;28;20037;-79
2022/01/18 10:08:09;;;;;;;21.17;4.18;;;;;;;5.48;100.00;103189.28;5054278;28;20599;-78
2022/01/18 10:10:41;;;;;;;25.85;4.15;;;;;;;5.45;100.00;103184.09;5045312;28;20032;-78
2022/01/18 10:13:08;;;;;;;23.77;3.10;;;;;;;5.36;100.00;103181.00;5029951;28;20060;-78
2022/01/18 10:15:35;;;;;;;;;;;;;;;5.43;100.00;103186.00;5053422;28;20020;-78
2022/01/18 10:18:08;;;;;;;25.90;3.80;;;;;;;5.42;100.00;103173.66;5061528;28;20389;-78
2022/01/18 10:20:52;;;;;;;16.20;3.17;;;;;;;5.49;100.00;103190.16;5070786;28;20061;-78
2022/01/18 10:23:23;;;;;;;16.88;3.78;;;;;;;5.47;100.00;103181.41;5063970;28;20509;-78
2022/01/18 10:25:49;;;;;;;25.95;3.15;;;;;;;5.50;100.00;103192.72;5052887;28;20032;-79
2022/01/18 10:28:28;;;;;;;22.45;4.05;;;;;;;5.49;100.00;103191.00;5044451;28;20100;-79
2022/01/18 10:30:54;;;;;;;25.70;3.70;;;;;;;5.35;100.00;103174.00;5044984;28;20399;-79
2022/01/18 10:33:26;;;;;;;16.02;2.85;;;;;;;5.34;100.00;103173.16;5061459;28;20040;-78
2022/01/18 10:36:13;;;;;;;19.50;3.55;;;;;;;5.30;100.00;103166.28;5043834;28;20036;-80
2022/01/18 10:38:45;;;;;;;22.20;3.92;;;;;;;5.22;100.00;103157.78;5044462;28;20032;-79
2022/01/18 10:41:24;;;;;;;19.13;4.57;;;;;;;5.31;100.00;103162.69;5053012;28;20148;-78
2022/01/18 10:44:14;;;;;;;21.55;2.80;;;;;;;5.36;100.00;103162.47;5070390;28;20600;-77
2022/01/18 10:46:58;;;;;;;15.82;3.10;;;;;;;5.48;100.00;103173.38;5070973;28;20063;-78
2022/01/18 10:49:47;;;;;;;11.32;2.78;;;;;;;5.43;100.00;103159.50;5051835;28;20398;-78
2022/01/18 10:52:22;;;;;;;19.15;2.90;;;;;;;5.46;100.00;103154.06;5063236;28;20127;-78
2022/01/18 10:54:56;;;;;;;14.88;2.70;;;;;;;5.32;100.00;103132.63;5052326;28;20044;-78
2022/01/18 10:57:28;;;;;;;12.98;3.10;;;;;;;5.34;100.00;103124.59;5052928;28;20028;-78
2022/01/18 11:00:13;;;;;;;13.70;2.92;;;;;;;5.39;100.00;103120.81;5044988;28;20046;-79
2022/01/18 11:02:41;;;;;;;20.75;4.07;;;;;;;5.33;100.00;103131.69;5053519;28;20469;-77
2022/01/18 11:05:26;;;;;;;19.45;3.00;;;;;;;5.33;100.00;103121.09;5049773;28;20024;-78
2022/01/18 11:07:53;;;;;;;22.10;3.38;;;;;;;5.40;100.00;103124.31;5052647;28;20110;-79
2022/01/18 11:10:21;;;;;;;16.48;3.47;;;;;;;5.30;100.00;103126.53;5047658;28;20281;-78
2022/01/18 11:13:04;;;;;;;15.05;3.03;;;;;;;5.28;100.00;103128.41;5050739;28;20053;-78
2022/01/18 11:15:36;;;;;;;6.55;2.05;;;;;;;5.31;100.00;103127.38;5051449;28;20055;-78
2022/01/18 11:18:05;;;;;;;9.18;2.33;;;;;;;5.34;100.00;103133.44;5053930;28;20115;-78
2022/01/18 11:20:34;;;;;;;10.52;2.75;;;;;;;5.35;100.00;103132.47;5044853;28;20478;-78
2022/01/18 11:23:00;;;;;;;6.15;1.23;;;;;;;5.34;100.00;103144.03;5052023;28;20020;-77
2022/01/18 11:25:27;;;;;;;10.75;1.50;;;;;;;5.42;100.00;103151.59;5043239;28;20035;-78
2022/01/18 11:27:56;;;;;;;7.47;1.45;;;;;;;5.41;100.00;103150.75;5054136;28;20071;-80
2022/01/18 11:30:24;;;;;;;8.82;1.50;;;;;;;5.56;100.00;103153.63;5047801;28;20051;-78
2022/01/18 11:32:54;;;;;;;5.63;1.17;;;;;;;5.50;100.00;103145.03;5072052;28;20056;-78
2022/01/18 11:35:26;;;;;;;7.78;1.45;;;;;;;5.57;100.00;103155.34;5052925;28;20060;-79
2022/01/18 11:38:09;;;;;;;6.30;1.15;;;;;;;5.48;100.00;103131.00;5061258;28;20465;-79
2022/01/18 11:40:51;;;;;;;10.88;1.50;;;;;;;5.50;100.00;103141.50;5067346;28;20024;-78
2022/01/18 11:43:35;;;;;;;7.57;2.20;;;;;;;5.49;100.00;103137.16;5044067;28;20048;-79
2022/01/18 11:46:30;;;;;;;6.00;1.40;;;;;;;5.50;100.00;103139.75;5066271;28;20031;-78
2022/01/18 11:49:15;;;;;;;7.07;1.40;;;;;;;5.52;100.00;103136.13;5051290;28;20561;-78
2022/01/18 11:52:06;;;;;;;8.15;1.15;;;;;;;5.49;100.00;103131.84;5051782;28;20486;-78
2022/01/18 11:54:36;;;;;;;6.95;1.23;;;;;;;5.47;100.00;103129.25;5035047;28;20056;-79
2022/01/18 11:57:03;;;;;;;6.40;1.38;;;;;;;5.48;100.00;103125.69;5050795;28;20032;-78
2022/01/18 11:59:39;;;;;;;19.77;1.90;;;;;;;5.35;100.00;103111.28;5052784;28;20032;-78
2022/01/18 12:02:05;;;;;;;;;;;;;;;5.38;100.00;103124.38;5046272;28;20425;-77
2022/01/18 12:04:49;;;;;;;;;;;;;;;5.42;100.00;103115.38;5061568;28;19908;-78
2022/01/18 12:07:33;;;;;;;5.88;1.38;;;;;;;5.41;100.00;103112.81;5054778;28;19912;-78
2022/01/18 12:10:00;;;;;;;11.20;1.75;;;;;;;5.43;100.00;103113.56;5035772;28;20509;-78
2022/01/18 12:12:46;;;;;;;5.55;2.42;;;;;;;5.43;100.00;103117.09;5052762;28;20054;-78
2022/01/18 12:15:18;;;;;;;;;;;;;;;5.47;100.00;103123.97;5053265;28;20032;-79
2022/01/18 12:18:04;;;;;;;6.22;1.48;;;;;;;5.53;100.00;103135.22;5052369;28;20003;-79
2022/01/18 12:20:35;;;;;;;3.58;0.82;;;;;;;5.62;100.00;103138.31;5044099;28;20033;-78
2022/01/18 12:23:02;;;;;;;10.38;1.58;;;;;;;5.64;100.00;103140.88;5035475;28;20039;-78
2022/01/18 12:25:35;;;;;;;7.78;1.10;;;;;;;5.61;100.00;103125.13;5051940;28;20398;-78
2022/01/18 12:28:47;;;;;;;9.38;1.77;;;;;;;5.63;100.00;103123.25;5051927;28;20036;-78
2022/01/18 12:34:33;;;;;;;15.30;1.58;;;;;;;5.69;100.00;103129.13;5058163;28;20085;-80
2022/01/18 12:37:08;;;;;;;6.63;1.48;;;;;;;5.68;100.00;103119.44;5050497;28;20101;-78
2022/01/18 12:39:57;;;;;;;8.02;1.77;;;;;;;5.70;100.00;103125.53;5042402;28;20036;-78
2022/01/18 12:45:37;;;;;;;5.88;1.67;;;;;;;5.73;100.00;103113.94;5005577;28;20042;-79
2022/01/18 12:48:09;;;;;;;;;;;;;;;5.66;100.00;103117.81;5055647;28;20052;-79